createdAt,value
2023-04-15T00:00:59.795Z,101083.19
2023-04-15T00:03:30.032Z,101084.88
2023-04-15T00:05:59.988Z,101084.81
2023-04-15T00:08:30.073Z,101088.22
2023-04-15T00:11:02.926Z,101082.94
2023-04-15T00:13:31.926Z,101075.91
2023-04-15T00:16:00.322Z,101078.50
2023-04-15T00:18:29.619Z,101081.06
2023-04-15T00:20:58.277Z,101084.44
2023-04-15T00:23:27.196Z,101077.50
2023-04-15T00:25:57.050Z,101080.94
2023-04-15T00:28:25.819Z,101085.22
2023-04-15T00:30:54.332Z,101081.69
2023-04-15T00:33:22.857Z,101083.44
2023-04-15T00:35:51.936Z,101072.97
2023-04-15T00:38:20.436Z,101085.09
2023-04-15T00:40:48.996Z,101089.44
2023-04-15T00:43:18.835Z,101088.56
2023-04-15T00:45:47.516Z,101091.13
2023-04-15T00:48:16.772Z,101095.47
2023-04-15T00:50:45.038Z,101091.06
2023-04-15T00:53:13.454Z,101096.22
2023-04-15T00:55:41.863Z,101098.78
2023-04-15T00:58:10.252Z,101095.22
2023-04-15T01:00:41.027Z,101096.00
2023-04-15T01:03:10.046Z,101092.44
2023-04-15T01:05:39.825Z,101097.59
2023-04-15T01:08:08.311Z,101099.22
2023-04-15T01:10:38.014Z,101096.56
2023-04-15T01:13:06.884Z,101104.28
2023-04-15T01:15:37.313Z,101099.03
2023-04-15T01:18:08.656Z,101101.59
2023-04-15T01:20:37.666Z,101102.38
2023-04-15T01:23:06.273Z,101112.72
2023-04-15T01:25:36.216Z,101108.31
2023-04-15T01:28:05.118Z,101103.94
2023-04-15T01:30:36.144Z,101113.38
2023-04-15T01:33:05.263Z,101104.66
2023-04-15T01:35:33.826Z,101100.25
2023-04-15T01:38:10.271Z,101096.75
2023-04-15T01:40:40.948Z,101100.16
2023-04-15T01:43:09.397Z,101107.09
2023-04-15T01:45:38.062Z,101103.56
2023-04-15T01:48:07.213Z,101107.03
2023-04-15T01:50:36.896Z,101103.50
2023-04-15T01:53:05.430Z,101105.19
2023-04-15T01:55:33.874Z,101103.34
2023-04-15T01:58:03.674Z,101110.19
2023-04-15T02:00:32.767Z,101112.75
2023-04-15T02:03:03.410Z,101105.69
2023-04-15T02:05:31.862Z,101112.53
2023-04-15T02:08:00.349Z,101107.19
2023-04-15T02:10:29.056Z,101112.28
2023-04-15T02:12:58.140Z,101118.31
2023-04-15T02:15:28.065Z,101115.53
2023-04-15T02:17:57.053Z,101108.50
2023-04-15T02:20:25.876Z,101117.06
2023-04-15T02:22:54.371Z,101115.13
2023-04-15T02:25:22.939Z,101115.00
2023-04-15T02:27:51.385Z,101118.34
2023-04-15T02:30:20.856Z,101127.81
2023-04-15T02:32:50.916Z,101119.91
2023-04-15T02:35:20.485Z,101127.56
2023-04-15T02:37:48.841Z,101129.22
2023-04-15T02:40:17.575Z,101136.06
2023-04-15T02:42:46.595Z,101132.50
2023-04-15T02:45:15.282Z,101134.94
2023-04-15T02:47:44.517Z,101147.00
2023-04-15T02:50:15.927Z,101146.94
2023-04-15T02:52:45.337Z,101154.72
2023-04-15T02:55:14.393Z,101152.94
2023-04-15T02:57:42.776Z,101155.53
2023-04-15T03:01:11.127Z,101147.63
2023-04-15T03:03:39.540Z,101154.44
2023-04-15T03:06:09.878Z,101150.16
2023-04-15T03:08:38.572Z,101154.59
2023-04-15T03:11:08.149Z,101152.84
2023-04-15T03:13:36.606Z,101154.59
2023-04-15T03:16:05.715Z,101160.69
2023-04-15T03:18:34.168Z,101162.41
2023-04-15T03:21:03.707Z,101162.41
2023-04-15T03:23:34.089Z,101152.88
2023-04-15T03:26:04.138Z,101157.25
2023-04-15T03:28:33.781Z,101152.94
2023-04-15T03:31:02.232Z,101156.38
2023-04-15T03:33:30.926Z,101162.41
2023-04-15T03:35:59.259Z,101158.84
2023-04-15T03:38:28.113Z,101157.88
2023-04-15T03:40:57.991Z,101159.53
2023-04-15T03:43:27.368Z,101161.13
2023-04-15T03:45:56.047Z,101165.28
2023-04-15T03:48:24.827Z,101159.94
2023-04-15T03:50:53.204Z,101167.69
2023-04-15T03:53:22.953Z,101165.81
2023-04-15T03:55:51.901Z,101171.88
2023-04-15T03:58:22.035Z,101177.94
2023-04-15T04:00:50.863Z,101176.19
2023-04-15T04:03:19.873Z,101174.38
2023-04-15T04:05:48.698Z,101174.31
2023-04-15T04:08:17.201Z,101182.03
2023-04-15T04:10:45.567Z,101181.97
2023-04-15T04:13:13.952Z,101187.06
2023-04-15T04:15:43.772Z,101190.44
2023-04-15T04:18:12.676Z,101184.22
2023-04-15T04:20:41.377Z,101187.69
2023-04-15T04:23:09.924Z,101193.69
2023-04-15T04:25:39.210Z,101189.34
2023-04-15T04:28:07.497Z,101197.06
2023-04-15T04:30:38.175Z,101194.41
2023-04-15T04:33:08.865Z,101201.28
2023-04-15T04:35:37.897Z,101199.44
2023-04-15T04:38:06.398Z,101201.97
2023-04-15T04:40:34.855Z,101197.56
2023-04-15T04:43:03.454Z,101202.72
2023-04-15T04:45:31.950Z,101206.09
2023-04-15T04:48:00.637Z,101201.75
2023-04-15T04:50:30.494Z,101186.16
2023-04-15T04:52:59.928Z,101194.84
2023-04-15T04:55:29.152Z,101202.63
2023-04-15T04:57:57.834Z,101201.75
2023-04-15T05:00:26.405Z,101200.84
2023-04-15T05:02:54.966Z,101198.38
2023-04-15T05:05:23.501Z,101206.28
2023-04-15T05:07:53.445Z,101205.59
2023-04-15T05:10:22.148Z,101209.22
2023-04-15T05:12:51.983Z,101204.13
2023-04-15T05:15:21.009Z,101212.94
2023-04-15T05:17:50.135Z,101216.53
2023-04-15T05:20:18.920Z,101214.00
2023-04-15T05:22:47.598Z,101215.88
2023-04-15T05:25:17.970Z,101223.94
2023-04-15T05:27:46.636Z,101222.47
2023-04-15T05:30:15.466Z,101234.84
2023-04-15T05:32:44.034Z,101236.81
2023-04-15T05:35:12.551Z,101246.53
2023-04-15T05:37:40.923Z,101237.28
2023-04-15T05:40:11.448Z,101243.59
2023-04-15T05:42:41.357Z,101243.88
2023-04-15T05:45:10.391Z,101242.47
2023-04-15T05:47:39.029Z,101248.00
2023-04-15T05:50:09.085Z,101256.13
2023-04-15T05:52:37.559Z,101248.63
2023-04-15T05:55:06.980Z,101259.38
2023-04-15T05:57:35.363Z,101254.47
2023-04-15T06:00:06.617Z,101266.88
2023-04-15T06:02:35.166Z,101274.03
2023-04-15T06:05:04.173Z,101282.06
2023-04-15T06:07:32.568Z,101276.34
2023-04-15T06:10:00.990Z,101280.25
2023-04-15T06:12:29.385Z,101275.47
2023-04-15T06:15:00.029Z,101282.00
2023-04-15T06:17:30.168Z,101288.50
2023-04-15T06:19:58.521Z,101288.00
2023-04-15T06:22:27.463Z,101281.38
2023-04-15T06:24:56.268Z,101285.16
2023-04-15T06:27:24.895Z,101280.19
2023-04-15T06:29:53.216Z,101293.59
2023-04-15T06:32:22.314Z,101293.84
2023-04-15T06:34:52.224Z,101300.13
2023-04-15T06:37:21.486Z,101307.31
2023-04-15T06:39:49.967Z,101305.81
2023-04-15T06:42:18.436Z,101302.53
2023-04-15T06:44:46.941Z,101313.13
2023-04-15T06:47:15.881Z,101324.56
2023-04-15T06:49:45.052Z,101323.00
2023-04-15T06:52:16.615Z,101324.91
2023-04-15T06:54:44.987Z,101321.56
2023-04-15T06:57:13.581Z,101326.09
2023-04-15T06:59:43.122Z,101328.81
2023-04-15T07:02:14.811Z,101332.47
2023-04-15T07:04:43.237Z,101329.94
2023-04-15T07:07:12.343Z,101328.31
2023-04-15T07:09:42.865Z,101324.09
2023-04-15T07:12:12.075Z,101324.28
2023-04-15T07:14:40.584Z,101321.81
2023-04-15T07:17:10.154Z,101321.00
2023-04-15T07:19:39.502Z,101328.06
2023-04-15T07:22:08.054Z,101328.16
2023-04-15T07:24:36.613Z,101330.00
2023-04-15T07:27:06.509Z,101331.91
2023-04-15T07:29:34.903Z,101336.38
2023-04-15T07:32:03.249Z,101340.78
2023-04-15T07:34:32.677Z,101345.22
2023-04-15T07:37:01.514Z,101346.19
2023-04-15T07:39:31.260Z,101345.44
2023-04-15T07:42:00.229Z,101344.59
2023-04-15T07:44:30.303Z,101344.66
2023-04-15T07:46:58.844Z,101349.97
2023-04-15T07:49:27.559Z,101349.97
2023-04-15T07:52:00.226Z,101350.84
2023-04-15T07:54:28.775Z,101351.66
2023-04-15T07:56:57.815Z,101355.09
2023-04-15T07:59:27.767Z,101355.97
2023-04-15T08:01:58.485Z,101358.59
2023-04-15T08:04:27.595Z,101349.84
2023-04-15T08:06:56.387Z,101363.84
2023-04-15T08:09:24.803Z,101358.53
2023-04-15T08:11:53.358Z,101363.72
2023-04-15T08:14:22.267Z,101361.94
2023-04-15T08:16:51.604Z,101363.66
2023-04-15T08:19:21.616Z,101365.38
2023-04-15T08:21:50.131Z,101363.56
2023-04-15T08:24:18.883Z,101372.28
2023-04-15T08:26:48.074Z,101362.69
2023-04-15T08:29:16.485Z,101366.19
2023-04-15T08:31:45.103Z,101372.31
2023-04-15T08:34:14.043Z,101376.69
2023-04-15T08:36:45.000Z,101374.09
2023-04-15T08:39:13.472Z,101370.56
2023-04-15T08:41:47.784Z,101372.38
2023-04-15T08:44:16.750Z,101370.75
2023-04-15T08:46:45.541Z,101363.91
2023-04-15T08:49:14.601Z,101379.75
2023-04-15T08:51:45.588Z,101378.91
2023-04-15T08:54:14.425Z,101373.66
2023-04-15T08:56:43.708Z,101376.28
2023-04-15T08:59:12.550Z,101367.50
2023-04-15T09:01:42.143Z,101369.25
2023-04-15T09:04:11.098Z,101373.59
2023-04-15T09:06:43.300Z,101378.00
2023-04-15T09:09:12.250Z,101380.69
2023-04-15T09:11:40.871Z,101385.09
2023-04-15T09:14:09.221Z,101382.53
2023-04-15T09:16:59.137Z,101393.06
2023-04-15T09:19:28.234Z,101397.47
2023-04-15T09:22:00.499Z,101401.88
2023-04-15T09:24:39.246Z,101392.28
2023-04-15T09:27:08.409Z,101399.34
2023-04-15T09:29:37.169Z,101406.38
2023-04-15T09:32:13.984Z,101398.53
2023-04-15T09:34:42.538Z,101396.84
2023-04-15T09:37:24.511Z,101406.53
2023-04-15T09:40:00.244Z,101400.41
2023-04-15T09:42:28.902Z,101403.88
2023-04-15T09:44:57.972Z,101411.72
2023-04-15T09:47:30.273Z,101416.94
2023-04-15T09:49:59.589Z,101416.94
2023-04-15T09:52:29.721Z,101417.81
2023-04-15T09:55:01.014Z,101423.88
2023-04-15T09:57:37.274Z,101425.63
2023-04-15T10:00:10.455Z,101419.44
2023-04-15T10:02:39.611Z,101425.59
2023-04-15T10:05:09.634Z,101430.88
2023-04-15T10:07:41.141Z,101432.69
2023-04-15T10:10:10.687Z,101440.56
2023-04-15T10:12:42.362Z,101447.63
2023-04-15T10:15:17.515Z,101439.78
2023-04-15T10:17:46.884Z,101441.56
2023-04-15T10:20:16.336Z,101434.53
2023-04-15T10:22:48.127Z,101445.88
2023-04-15T10:25:17.588Z,101445.88
2023-04-15T10:27:48.580Z,101448.53
2023-04-15T10:30:17.739Z,101448.53
2023-04-15T10:32:47.702Z,101446.81
2023-04-15T10:35:17.135Z,101445.09
2023-04-15T10:37:46.903Z,101446.88
2023-04-15T10:40:31.741Z,101447.78
2023-04-15T10:43:02.302Z,101444.28
2023-04-15T10:45:35.454Z,101453.06
2023-04-15T10:48:06.118Z,101449.56
2023-04-15T10:50:34.917Z,101454.78
2023-04-15T10:53:06.166Z,101450.41
2023-04-15T10:55:36.575Z,101467.94
2023-04-15T10:58:05.206Z,101460.06
2023-04-15T11:00:35.715Z,101466.19
2023-04-15T11:03:08.884Z,101467.06
2023-04-15T11:06:01.844Z,101474.06
2023-04-15T11:09:06.053Z,101481.84
2023-04-15T11:12:08.347Z,101476.56
2023-04-15T11:14:41.500Z,101472.19
2023-04-15T11:17:10.236Z,101483.56
2023-04-15T11:19:40.346Z,101480.00
2023-04-15T11:22:10.155Z,101486.19
2023-04-15T11:24:51.052Z,101485.31
2023-04-15T11:27:23.963Z,101481.84
2023-04-15T11:29:53.095Z,101485.34
2023-04-15T11:32:23.665Z,101501.09
2023-04-15T11:34:53.700Z,101491.44
2023-04-15T11:37:30.817Z,101497.47
2023-04-15T11:40:00.643Z,101490.41
2023-04-15T11:42:36.396Z,101502.56
2023-04-15T11:45:16.841Z,101505.16
2023-04-15T11:47:45.256Z,101506.09
2023-04-15T11:50:19.396Z,101502.63
2023-04-15T11:52:58.885Z,101506.09
2023-04-15T11:55:28.946Z,101504.34
2023-04-15T11:58:15.635Z,101514.00
2023-04-15T12:00:49.976Z,101513.09
2023-04-15T12:03:25.375Z,101513.91
2023-04-15T12:06:21.418Z,101508.50
2023-04-15T12:09:02.772Z,101519.66
2023-04-15T12:11:36.624Z,101523.09
2023-04-15T12:14:08.475Z,101528.34
2023-04-15T12:16:48.170Z,101523.09
2023-04-15T12:19:24.546Z,101529.97
2023-04-15T12:21:55.013Z,101533.34
2023-04-15T12:24:24.403Z,101542.81
2023-04-15T12:26:57.341Z,101542.81
2023-04-15T12:29:28.926Z,101541.97
2023-04-15T12:31:59.467Z,101544.59
2023-04-15T12:34:30.668Z,101543.69
2023-04-15T12:37:02.985Z,101548.94
2023-04-15T12:39:36.991Z,101555.00
2023-04-15T12:42:08.411Z,101554.03
2023-04-15T12:44:39.023Z,101557.44
2023-04-15T12:47:09.189Z,101566.97
2023-04-15T12:49:37.818Z,101566.00
2023-04-15T12:52:09.490Z,101569.44
2023-04-15T12:54:37.857Z,101571.16
2023-04-15T12:57:07.925Z,101579.03
2023-04-15T12:59:37.558Z,101572.94
2023-04-15T13:02:06.445Z,101576.38
2023-04-15T13:04:35.111Z,101579.00
2023-04-15T13:07:04.307Z,101582.41
2023-04-15T13:09:32.711Z,101585.00
2023-04-15T13:12:01.504Z,101587.63
2023-04-15T13:14:31.686Z,101590.25
2023-04-15T13:17:00.612Z,101587.56
2023-04-15T13:19:28.930Z,101590.13
2023-04-15T13:21:57.657Z,101590.13
2023-04-15T13:24:29.671Z,101595.38
2023-04-15T13:26:59.282Z,101596.38
2023-04-15T13:29:27.831Z,101590.28
2023-04-15T13:31:58.260Z,101594.72
2023-04-15T13:34:27.817Z,101596.53
2023-04-15T13:36:56.385Z,101589.63
2023-04-15T13:39:25.002Z,101601.94
2023-04-15T13:41:53.343Z,101604.53
2023-04-15T13:44:22.400Z,101603.66
2023-04-15T13:46:51.004Z,101610.63
2023-04-15T13:49:21.363Z,101609.75
2023-04-15T13:51:49.828Z,101614.06
2023-04-15T13:54:18.555Z,101610.56
2023-04-15T13:56:46.966Z,101612.28
2023-04-15T13:59:15.280Z,101623.59
2023-04-15T14:01:44.396Z,101619.16
2023-04-15T14:04:13.127Z,101622.63
2023-04-15T14:06:43.017Z,101614.78
2023-04-15T14:09:11.845Z,101620.09
2023-04-15T14:11:40.862Z,101624.53
2023-04-15T14:14:09.312Z,101623.78
2023-04-15T14:16:37.980Z,101622.06
2023-04-15T14:19:06.810Z,101632.50
2023-04-15T14:21:35.366Z,101633.34
2023-04-15T14:24:05.567Z,101626.28
2023-04-15T14:26:34.070Z,101632.34
2023-04-15T14:29:02.680Z,101630.50
2023-04-15T14:31:31.326Z,101634.75
2023-04-15T14:33:59.699Z,101639.03
2023-04-15T14:36:32.050Z,101634.63
2023-04-15T14:39:00.637Z,101643.28
2023-04-15T14:41:30.517Z,101637.97
2023-04-15T14:43:59.023Z,101643.22
2023-04-15T14:46:28.040Z,101651.94
2023-04-15T14:48:56.512Z,101652.84
2023-04-15T14:51:27.347Z,101649.44
2023-04-15T14:53:56.100Z,101650.34
2023-04-15T14:56:24.598Z,101663.47
2023-04-15T14:58:54.732Z,101671.38
2023-04-15T15:01:23.633Z,101675.72
2023-04-15T15:03:52.580Z,101672.25
2023-04-15T15:06:23.338Z,101681.88
2023-04-15T15:08:58.200Z,101679.28
2023-04-15T15:11:27.239Z,101682.78
2023-04-15T15:13:58.522Z,101683.59
2023-04-15T15:16:27.456Z,101685.31
2023-04-15T15:18:56.314Z,101687.88
2023-04-15T15:21:24.849Z,101690.41
2023-04-15T15:23:53.638Z,101693.81
2023-04-15T15:26:22.367Z,101690.38
2023-04-15T15:28:51.446Z,101695.59
2023-04-15T15:31:21.302Z,101700.88
2023-04-15T15:33:49.892Z,101690.44
2023-04-15T15:36:18.769Z,101691.28
2023-04-15T15:38:47.315Z,101703.53
2023-04-15T15:41:15.814Z,101700.94
2023-04-15T15:43:44.105Z,101702.69
2023-04-15T15:46:12.615Z,101715.78
2023-04-15T15:48:42.354Z,101713.16
2023-04-15T15:51:10.981Z,101708.75
2023-04-15T15:53:39.552Z,101721.84
2023-04-15T15:56:08.144Z,101708.78
2023-04-15T15:58:36.967Z,101714.91
2023-04-15T16:01:05.929Z,101722.78
2023-04-15T16:03:34.675Z,101723.66
2023-04-15T16:06:05.785Z,101729.78
2023-04-15T16:08:34.226Z,101735.00
2023-04-15T16:11:02.691Z,101731.44
2023-04-15T16:13:32.193Z,101736.66
2023-04-15T16:16:00.684Z,101738.34
2023-04-15T16:18:29.274Z,101747.91
2023-04-15T16:20:57.783Z,101743.53
2023-04-15T16:23:27.747Z,101744.38
2023-04-15T16:25:56.384Z,101746.06
2023-04-15T16:28:27.147Z,101748.66
2023-04-15T16:30:56.496Z,101756.50
2023-04-15T16:33:25.080Z,101753.84
2023-04-15T16:35:53.575Z,101759.06
2023-04-15T16:38:22.094Z,101765.19
2023-04-15T16:40:52.818Z,101768.66
2023-04-15T16:43:21.530Z,101768.63
2023-04-15T16:45:51.710Z,101764.28
2023-04-15T16:48:22.484Z,101770.41
2023-04-15T16:50:51.780Z,101771.25
2023-04-15T16:53:21.598Z,101773.88
2023-04-15T16:55:51.701Z,101770.41
2023-04-15T16:58:20.292Z,101775.66
2023-04-15T17:00:48.700Z,101773.00
2023-04-15T17:03:17.249Z,101779.06
2023-04-15T17:05:46.439Z,101779.91
2023-04-15T17:08:14.809Z,101783.34
2023-04-15T17:10:43.330Z,101780.69
2023-04-15T17:13:17.205Z,101789.41
2023-04-15T17:15:45.832Z,101791.16
2023-04-15T17:18:14.348Z,101785.97
2023-04-15T17:20:42.726Z,101790.28
2023-04-15T17:23:11.405Z,101793.78
2023-04-15T17:25:39.892Z,101805.97
2023-04-15T17:28:08.224Z,101796.28
2023-04-15T17:30:37.959Z,101804.06
2023-04-15T17:33:55.929Z,101800.59
2023-04-15T17:35:58.768Z,101815.41
2023-04-15T17:38:27.828Z,101805.81
2023-04-15T17:40:56.645Z,101818.03
2023-04-15T17:43:25.318Z,101820.63
2023-04-15T17:45:56.209Z,101821.50
2023-04-15T17:48:27.540Z,101819.69
2023-04-15T17:50:56.306Z,101816.25
2023-04-15T17:53:25.221Z,101821.50
2023-04-15T17:55:53.983Z,101833.66
2023-04-15T17:58:25.844Z,101828.41
2023-04-15T18:00:55.595Z,101831.03
2023-04-15T18:03:24.362Z,101836.34
2023-04-15T18:05:52.996Z,101838.13
2023-04-15T18:08:21.519Z,101839.00
2023-04-15T18:10:50.122Z,101846.91
2023-04-15T18:13:18.531Z,101845.16
2023-04-15T18:15:48.882Z,101852.03
2023-04-15T18:18:18.914Z,101848.53
2023-04-15T18:20:47.308Z,101866.00
2023-04-15T18:23:15.660Z,101859.06
2023-04-15T18:25:44.926Z,101864.25
2023-04-15T18:28:13.528Z,101865.13
2023-04-15T18:30:42.046Z,101871.25
2023-04-15T18:33:10.525Z,101866.91
2023-04-15T18:35:42.738Z,101875.66
2023-04-15T18:38:11.194Z,101881.81
2023-04-15T18:40:39.589Z,101887.91
2023-04-15T18:43:10.112Z,101889.66
2023-04-15T18:45:38.624Z,101891.38
2023-04-15T18:48:07.389Z,101903.63
2023-04-15T18:50:36.057Z,101901.94
2023-04-15T18:53:05.757Z,101904.53
2023-04-15T18:55:34.106Z,101904.53
2023-04-15T18:58:07.545Z,101902.81
2023-04-15T19:00:40.702Z,101915.91
2023-04-15T19:03:09.782Z,101916.75
2023-04-15T19:05:38.213Z,101916.75
2023-04-15T19:08:08.621Z,101917.66
2023-04-15T19:10:37.015Z,101912.47
2023-04-15T19:13:05.772Z,101920.34
2023-04-15T19:15:34.304Z,101936.13
2023-04-15T19:18:04.583Z,101937.00
2023-04-15T19:20:36.642Z,101929.19
2023-04-15T19:23:07.884Z,101937.97
2023-04-15T19:25:36.378Z,101937.97
2023-04-15T19:28:04.959Z,101930.97
2023-04-15T19:30:33.673Z,101945.84
2023-04-15T19:33:03.011Z,101938.88
2023-04-15T19:35:31.433Z,101949.34
2023-04-15T19:37:59.984Z,101949.34
2023-04-15T19:40:29.954Z,101954.59
2023-04-15T19:42:58.451Z,101957.22
2023-04-15T19:45:28.372Z,101952.03
2023-04-15T19:47:56.849Z,101958.13
2023-04-15T19:50:27.651Z,101952.91
2023-04-15T19:52:56.562Z,101952.94
2023-04-15T19:55:25.183Z,101953.88
2023-04-15T19:57:55.134Z,101958.28
2023-04-15T20:00:24.508Z,101965.28
2023-04-15T20:02:53.238Z,101964.38
2023-04-15T20:05:22.053Z,101962.66
2023-04-15T20:07:53.089Z,101958.34
2023-04-15T20:10:22.548Z,101953.13
2023-04-15T20:12:53.411Z,101951.38
2023-04-15T20:15:29.767Z,101961.91
2023-04-15T20:17:58.794Z,101951.38
2023-04-15T20:20:27.627Z,101956.69
2023-04-15T20:22:56.439Z,101961.97
2023-04-15T20:25:25.286Z,101965.47
2023-04-15T20:27:53.708Z,101961.13
2023-04-15T20:30:23.502Z,101955.94
2023-04-15T20:32:53.662Z,101953.38
2023-04-15T20:35:28.028Z,101956.00
2023-04-15T20:37:56.510Z,101955.13
2023-04-15T20:40:25.148Z,101951.66
2023-04-15T20:42:53.847Z,101949.94
2023-04-15T20:45:23.772Z,101959.59
2023-04-15T20:47:54.733Z,101955.16
2023-04-15T20:50:23.538Z,101958.72
2023-04-15T20:52:52.106Z,101957.84
2023-04-15T20:55:21.489Z,101960.50
2023-04-15T20:57:50.194Z,101970.97
2023-04-15T21:00:18.770Z,101962.28
2023-04-15T21:02:48.679Z,101964.97
2023-04-15T21:05:17.196Z,101965.88
2023-04-15T21:07:45.554Z,101965.88
2023-04-15T21:10:14.082Z,101965.88
2023-04-15T21:12:42.648Z,101960.63
2023-04-15T21:15:12.050Z,101970.22
2023-04-15T21:17:41.705Z,101963.25
2023-04-15T21:20:13.211Z,101971.16
2023-04-15T21:22:42.333Z,101973.78
2023-04-15T21:25:11.313Z,101977.25
2023-04-15T21:27:39.903Z,101979.88
2023-04-15T21:30:09.736Z,101975.53
2023-04-15T21:32:38.160Z,101977.25
2023-04-15T21:35:08.104Z,101987.78
2023-04-15T21:37:38.652Z,101989.50
2023-04-15T21:40:09.231Z,101987.78
2023-04-15T21:42:37.973Z,101988.69
2023-04-15T21:45:07.751Z,101993.06
2023-04-15T21:48:01.222Z,102000.91
2023-04-15T21:50:25.462Z,102007.91
2023-04-15T21:52:55.445Z,102006.16
2023-04-15T21:55:24.265Z,102012.25
2023-04-15T21:57:53.193Z,102014.84
2023-04-15T22:00:23.206Z,102021.88
2023-04-15T22:02:52.148Z,102029.75
2023-04-15T22:05:21.649Z,102023.63
2023-04-15T22:07:52.391Z,102035.00
2023-04-15T22:10:23.091Z,102032.38
2023-04-15T22:12:51.877Z,102027.13
2023-04-15T22:15:20.755Z,102024.53
2023-04-15T22:17:49.567Z,102025.38
2023-04-15T22:20:18.363Z,102029.78
2023-04-15T22:22:47.583Z,102035.03
2023-04-15T22:25:16.182Z,102027.19
2023-04-15T22:27:46.086Z,102030.69
2023-04-15T22:30:14.731Z,102029.81
2023-04-15T22:32:43.190Z,102021.88
2023-04-15T22:35:12.030Z,102034.13
2023-04-15T22:37:40.414Z,102043.72
2023-04-15T22:40:10.289Z,102041.97
2023-04-15T22:42:38.609Z,102054.22
2023-04-15T22:45:10.632Z,102055.03
2023-04-15T22:47:39.319Z,102061.13
2023-04-15T22:50:09.560Z,102066.28
2023-04-15T22:52:38.146Z,102063.69
2023-04-15T22:55:08.482Z,102062.75
2023-04-15T22:57:36.839Z,102059.22
2023-04-15T23:00:08.053Z,102057.41
2023-04-15T23:02:36.560Z,102066.19
2023-04-15T23:05:13.129Z,102068.78
2023-04-15T23:07:42.293Z,102068.78
2023-04-15T23:10:11.424Z,102065.31
2023-04-15T23:12:39.763Z,102061.78
2023-04-15T23:15:11.036Z,102071.41
2023-04-15T23:17:39.512Z,102075.72
2023-04-15T23:20:09.014Z,102079.19
2023-04-15T23:22:37.755Z,102084.38
2023-04-15T23:25:08.545Z,102079.03
2023-04-15T23:27:37.979Z,102074.53
2023-04-15T23:30:09.668Z,102075.28
2023-04-15T23:32:38.175Z,102085.66
2023-04-15T23:35:07.345Z,102090.78
2023-04-15T23:37:35.695Z,102087.22
2023-04-15T23:40:04.517Z,102088.78
2023-04-15T23:42:33.142Z,102093.09
2023-04-15T23:45:01.888Z,102090.38
2023-04-15T23:47:31.679Z,102095.59
2023-04-15T23:50:00.067Z,102101.66
2023-04-15T23:52:28.656Z,102100.84
2023-04-15T23:54:57.079Z,102099.97
2023-04-15T23:57:25.718Z,102099.09
2023-04-15T23:59:54.688Z,102100.78
